createdAt,value
2023-02-06T00:00:52.823Z,102512.00
2023-02-06T00:03:55.490Z,102509.72
2023-02-06T00:06:58.684Z,102511.19
2023-02-06T00:10:01.414Z,102521.81
2023-02-06T00:13:04.167Z,102511.59
2023-02-06T00:16:16.518Z,102521.06
2023-02-06T00:19:19.610Z,102521.91
2023-02-06T00:22:22.559Z,102521.91
2023-02-06T00:25:25.230Z,102521.91
2023-02-06T00:28:28.610Z,102525.81
2023-02-06T00:31:33.017Z,102513.91
2023-02-06T00:34:35.708Z,102525.44
2023-02-06T00:37:38.750Z,102520.75
2023-02-06T00:40:41.303Z,102527.16
2023-02-06T00:43:44.549Z,102530.44
2023-02-06T00:46:47.102Z,102514.00
2023-02-06T00:49:50.027Z,102502.16
2023-02-06T00:52:52.798Z,102517.31
2023-02-06T00:55:55.950Z,102500.06
2023-02-06T00:58:58.787Z,102513.38
2023-02-06T01:02:01.541Z,102522.50
2023-02-06T01:05:06.954Z,102513.38
2023-02-06T01:08:11.162Z,102516.47
2023-02-06T01:11:17.877Z,102506.03
2023-02-06T01:14:20.846Z,102506.69
2023-02-06T01:17:23.335Z,102513.34
2023-02-06T01:20:26.163Z,102507.31
2023-02-06T01:23:28.848Z,102507.81
2023-02-06T01:26:31.738Z,102506.19
2023-02-06T01:29:34.678Z,102507.97
2023-02-06T01:32:41.132Z,102498.81
2023-02-06T01:35:43.834Z,102497.34
2023-02-06T01:38:47.367Z,102504.97
2023-02-06T01:41:51.120Z,102502.69
2023-02-06T01:45:21.615Z,102501.38
2023-02-06T01:48:49.713Z,102513.56
2023-02-06T01:51:56.649Z,102504.13
2023-02-06T01:55:03.025Z,102503.31
2023-02-06T01:58:09.904Z,102498.91
2023-02-06T02:01:12.639Z,102493.72
2023-02-06T02:04:19.231Z,102492.25
2023-02-06T02:07:28.693Z,102497.59
2023-02-06T02:10:32.446Z,102502.97
2023-02-06T02:13:36.640Z,102494.97
2023-02-06T02:17:15.583Z,102498.50
2023-02-06T02:20:44.255Z,102499.97
2023-02-06T02:23:56.227Z,102493.88
2023-02-06T02:27:15.199Z,102493.38
2023-02-06T02:30:20.613Z,102501.06
2023-02-06T02:33:52.187Z,102498.03
2023-02-06T02:37:23.009Z,102493.69
2023-02-06T02:40:47.872Z,102486.56
2023-02-06T02:43:58.759Z,102485.91
2023-02-06T02:47:06.517Z,102493.72
2023-02-06T02:50:09.897Z,102488.34
2023-02-06T02:53:13.278Z,102473.88
2023-02-06T02:56:24.590Z,102482.19
2023-02-06T02:59:36.659Z,102485.25
2023-02-06T03:02:41.245Z,102478.72
2023-02-06T03:06:27.470Z,102493.97
2023-02-06T03:09:33.874Z,102494.91
2023-02-06T03:12:46.242Z,102489.97
2023-02-06T03:16:07.411Z,102498.91
2023-02-06T03:19:24.436Z,102484.13
2023-02-06T03:22:29.148Z,102494.53
2023-02-06T03:25:37.633Z,102476.28
2023-02-06T03:28:46.095Z,102485.69
2023-02-06T03:31:51.457Z,102486.31
2023-02-06T03:35:09.232Z,102494.53
2023-02-06T03:38:12.893Z,102486.72
2023-02-06T03:41:17.654Z,102490.81
2023-02-06T03:44:24.967Z,102491.22
2023-02-06T03:47:30.297Z,102495.53
2023-02-06T03:50:36.050Z,102484.69
2023-02-06T03:53:41.238Z,102482.28
2023-02-06T03:56:48.927Z,102486.84
2023-02-06T03:59:52.103Z,102492.84
2023-02-06T04:02:56.890Z,102482.25
2023-02-06T04:06:00.256Z,102474.38
2023-02-06T04:09:02.889Z,102483.06
2023-02-06T04:12:06.009Z,102479.28
2023-02-06T04:15:12.662Z,102490.41
2023-02-06T04:18:15.637Z,102485.47
2023-02-06T04:21:18.204Z,102482.22
2023-02-06T04:24:21.241Z,102487.41
2023-02-06T04:27:23.859Z,102490.34
2023-02-06T04:30:27.074Z,102492.59
2023-02-06T04:33:29.870Z,102490.59
2023-02-06T04:36:32.831Z,102498.31
2023-02-06T04:39:36.928Z,102494.16
2023-02-06T04:42:39.991Z,102503.72
2023-02-06T04:45:42.614Z,102506.81
2023-02-06T04:48:45.583Z,102514.16
2023-02-06T04:51:48.071Z,102509.78
2023-02-06T04:54:50.761Z,102500.19
2023-02-06T04:57:53.180Z,102510.03
2023-02-06T05:00:56.555Z,102502.41
2023-02-06T05:03:59.219Z,102507.47
2023-02-06T05:07:03.969Z,102505.56
2023-02-06T05:10:09.367Z,102508.84
2023-02-06T05:13:15.027Z,102527.59
2023-02-06T05:16:18.507Z,102524.34
2023-02-06T05:19:21.791Z,102525.03
2023-02-06T05:22:24.232Z,102518.59
2023-02-06T05:25:27.371Z,102519.69
2023-02-06T05:28:33.406Z,102524.63
2023-02-06T05:31:36.556Z,102509.81
2023-02-06T05:34:39.220Z,102527.41
2023-02-06T05:37:41.845Z,102532.31
2023-02-06T05:40:44.631Z,102531.66
2023-02-06T05:43:47.448Z,102538.47
2023-02-06T05:46:50.137Z,102542.69
2023-02-06T05:49:53.014Z,102539.69
2023-02-06T05:52:55.444Z,102539.63
2023-02-06T05:55:58.365Z,102534.31
2023-02-06T05:59:00.737Z,102531.25
2023-02-06T06:02:05.100Z,102535.91
2023-02-06T06:05:07.895Z,102545.03
2023-02-06T06:08:11.388Z,102539.84
2023-02-06T06:11:14.238Z,102531.22
2023-02-06T06:14:16.890Z,102545.09
2023-02-06T06:17:19.317Z,102544.13
2023-02-06T06:20:22.099Z,102532.81
2023-02-06T06:23:24.667Z,102531.69
2023-02-06T06:26:27.653Z,102529.88
2023-02-06T06:29:30.430Z,102529.38
2023-02-06T06:32:32.982Z,102528.72
2023-02-06T06:35:35.859Z,102516.34
2023-02-06T06:38:39.842Z,102528.53
2023-02-06T06:41:42.608Z,102528.53
2023-02-06T06:44:45.387Z,102531.00
2023-02-06T06:47:47.891Z,102518.44
2023-02-06T06:50:50.614Z,102518.44
2023-02-06T06:53:53.308Z,102522.47
2023-02-06T06:56:55.970Z,102525.22
2023-02-06T06:59:58.653Z,102523.25
2023-02-06T07:03:01.276Z,102528.63
2023-02-06T07:06:05.293Z,102529.44
2023-02-06T07:09:08.032Z,102532.44
2023-02-06T07:12:10.789Z,102535.69
2023-02-06T07:15:13.518Z,102537.47
2023-02-06T07:18:16.106Z,102534.97
2023-02-06T07:21:20.006Z,102530.88
2023-02-06T07:24:22.788Z,102537.59
2023-02-06T07:27:25.366Z,102536.31
2023-02-06T07:30:28.506Z,102538.72
2023-02-06T07:33:31.721Z,102545.22
2023-02-06T07:36:34.379Z,102536.31
2023-02-06T07:39:37.108Z,102543.88
2023-02-06T07:42:40.273Z,102546.88
2023-02-06T07:45:55.106Z,102547.59
2023-02-06T07:48:57.895Z,102536.50
2023-02-06T07:52:00.426Z,102540.81
2023-02-06T07:55:03.149Z,102547.94
2023-02-06T07:58:05.728Z,102553.13
2023-02-06T08:01:08.891Z,102558.38
2023-02-06T08:04:11.912Z,102553.97
2023-02-06T08:07:17.110Z,102547.25
2023-02-06T08:10:19.842Z,102551.28
2023-02-06T08:13:22.730Z,102559.66
2023-02-06T08:16:25.771Z,102553.72
2023-02-06T08:19:28.538Z,102553.00
2023-02-06T08:22:31.103Z,102558.06
2023-02-06T08:25:33.801Z,102553.34
2023-02-06T08:28:37.273Z,102535.53
2023-02-06T08:31:41.771Z,102551.84
2023-02-06T08:34:44.680Z,102550.97
2023-02-06T08:37:47.336Z,102559.69
2023-02-06T08:40:49.954Z,102548.59
2023-02-06T08:43:55.386Z,102538.94
2023-02-06T08:47:09.254Z,102541.13
2023-02-06T08:50:12.348Z,102537.97
2023-02-06T08:53:14.875Z,102534.25
2023-02-06T08:56:17.618Z,102530.75
2023-02-06T08:59:20.587Z,102535.38
2023-02-06T09:02:23.463Z,102524.47
2023-02-06T09:05:26.310Z,102526.13
2023-02-06T09:08:29.523Z,102530.81
2023-02-06T09:11:32.513Z,102532.81
2023-02-06T09:14:35.672Z,102531.41
2023-02-06T09:17:38.058Z,102520.69
2023-02-06T09:20:40.722Z,102528.34
2023-02-06T09:23:49.890Z,102526.72
2023-02-06T09:26:59.776Z,102531.28
2023-02-06T09:30:03.258Z,102520.75
2023-02-06T09:33:09.985Z,102525.38
2023-02-06T09:36:15.659Z,102513.53
2023-02-06T09:39:18.422Z,102518.31
2023-02-06T09:42:37.367Z,102516.09
2023-02-06T09:45:40.971Z,102514.31
2023-02-06T09:48:43.714Z,102511.03
2023-02-06T09:51:58.357Z,102517.94
2023-02-06T09:55:25.251Z,102494.75
2023-02-06T09:58:30.939Z,102499.44
2023-02-06T10:01:43.126Z,102498.47
2023-02-06T10:05:20.779Z,102493.25
2023-02-06T10:08:35.977Z,102493.16
2023-02-06T10:12:01.613Z,102492.69
2023-02-06T10:15:12.751Z,102487.81
2023-02-06T10:18:33.609Z,102489.09
2023-02-06T10:21:45.376Z,102494.88
2023-02-06T10:25:17.149Z,102488.09
2023-02-06T10:28:28.563Z,102496.72
2023-02-06T10:32:13.639Z,102484.09
2023-02-06T10:35:47.613Z,102477.41
2023-02-06T10:39:14.693Z,102482.88
2023-02-06T10:42:28.734Z,102478.91
2023-02-06T10:45:46.367Z,102476.69
2023-02-06T10:49:02.786Z,102476.56
2023-02-06T10:52:28.595Z,102466.81
2023-02-06T10:55:55.522Z,102465.97
2023-02-06T10:59:30.296Z,102468.16
2023-02-06T11:02:48.991Z,102473.28
2023-02-06T11:05:55.668Z,102460.19
2023-02-06T11:08:58.429Z,102454.78
2023-02-06T11:12:02.048Z,102450.69
2023-02-06T11:15:27.834Z,102446.50
2023-02-06T11:18:37.083Z,102455.00
2023-02-06T11:21:42.299Z,102454.84
2023-02-06T11:25:07.865Z,102460.94
2023-02-06T11:28:15.209Z,102461.53
2023-02-06T11:31:19.670Z,102460.34
2023-02-06T11:34:24.951Z,102448.94
2023-02-06T11:37:38.523Z,102455.84
2023-02-06T11:40:42.649Z,102454.53
2023-02-06T11:43:50.328Z,102451.53
2023-02-06T11:46:53.741Z,102450.13
2023-02-06T11:49:58.808Z,102449.63
2023-02-06T11:53:12.162Z,102441.09
2023-02-06T11:56:20.757Z,102436.22
2023-02-06T11:59:24.417Z,102442.47
2023-02-06T12:02:33.253Z,102441.91
2023-02-06T12:05:42.197Z,102443.88
2023-02-06T12:08:53.027Z,102438.47
2023-02-06T12:12:34.201Z,102436.47
2023-02-06T12:15:47.201Z,102440.59
2023-02-06T12:18:56.206Z,102438.81
2023-02-06T12:22:04.183Z,102439.53
2023-02-06T12:25:22.236Z,102432.34
2023-02-06T12:28:50.938Z,102431.28
2023-02-06T12:32:05.736Z,102422.34
2023-02-06T12:35:40.457Z,102422.31
2023-02-06T12:38:55.870Z,102418.28
2023-02-06T12:42:32.045Z,102422.53
2023-02-06T12:46:00.152Z,102420.59
2023-02-06T12:49:20.049Z,102414.63
2023-02-06T12:52:27.600Z,102423.75
2023-02-06T12:55:30.070Z,102422.97
2023-02-06T12:58:49.930Z,102423.66
2023-02-06T13:02:01.067Z,102418.06
2023-02-06T13:05:17.493Z,102419.38
2023-02-06T13:08:27.720Z,102427.19
2023-02-06T13:11:35.219Z,102423.75
2023-02-06T13:14:44.028Z,102425.94
2023-02-06T13:17:47.070Z,102423.06
2023-02-06T13:21:28.506Z,102422.81
2023-02-06T13:24:31.415Z,102423.94
2023-02-06T13:27:38.655Z,102430.22
2023-02-06T13:30:47.267Z,102424.47
2023-02-06T13:33:56.858Z,102419.97
2023-02-06T13:37:24.958Z,102433.91
2023-02-06T13:40:30.829Z,102434.66
2023-02-06T13:43:33.653Z,102430.19
2023-02-06T13:47:00.785Z,102435.94
2023-02-06T13:50:22.553Z,102440.31
2023-02-06T13:53:35.894Z,102439.66
2023-02-06T13:56:38.736Z,102447.66
2023-02-06T13:59:52.401Z,102446.88
2023-02-06T14:03:04.931Z,102445.03
2023-02-06T14:06:31.555Z,102441.59
2023-02-06T14:09:56.574Z,102444.03
2023-02-06T14:13:15.178Z,102452.28
2023-02-06T14:16:42.344Z,102438.94
2023-02-06T14:20:00.572Z,102442.84
2023-02-06T14:23:29.276Z,102446.94
2023-02-06T14:26:49.779Z,102445.56
2023-02-06T14:30:34.955Z,102456.09
2023-02-06T14:34:05.315Z,102451.81
2023-02-06T14:37:41.274Z,102455.19
2023-02-06T14:40:46.447Z,102457.38
2023-02-06T14:43:51.146Z,102463.94
2023-02-06T14:46:53.668Z,102467.16
2023-02-06T14:50:00.003Z,102460.59
2023-02-06T14:53:20.697Z,102468.97
2023-02-06T14:56:32.218Z,102478.25
2023-02-06T14:59:34.658Z,102472.06
2023-02-06T15:02:37.655Z,102488.16
2023-02-06T15:05:40.173Z,102485.63
2023-02-06T15:08:50.840Z,102496.28
2023-02-06T15:11:57.048Z,102497.56
2023-02-06T15:15:14.349Z,102511.56
2023-02-06T15:18:18.216Z,102508.41
2023-02-06T15:21:21.387Z,102497.59
2023-02-06T15:24:49.707Z,102498.91
2023-02-06T15:28:03.091Z,102502.22
2023-02-06T15:31:17.036Z,102494.72
2023-02-06T15:34:22.210Z,102493.09
2023-02-06T15:37:34.567Z,102497.94
2023-02-06T15:40:42.327Z,102501.59
2023-02-06T15:43:46.855Z,102513.66
2023-02-06T15:46:50.522Z,102513.78
2023-02-06T15:49:54.227Z,102529.00
2023-02-06T15:52:57.094Z,102518.28
2023-02-06T15:56:02.037Z,102524.94
2023-02-06T15:59:13.886Z,102523.38
2023-02-06T16:02:34.105Z,102528.00
2023-02-06T16:05:42.373Z,102531.47
2023-02-06T16:08:51.381Z,102532.69
2023-02-06T16:11:57.158Z,102533.13
2023-02-06T16:15:01.550Z,102529.63
2023-02-06T16:18:27.186Z,102527.16
2023-02-06T16:21:32.468Z,102548.09
2023-02-06T16:24:35.299Z,102556.38
2023-02-06T16:27:43.013Z,102558.16
2023-02-06T16:31:04.878Z,102556.22
2023-02-06T16:34:44.879Z,102556.25
2023-02-06T16:37:49.466Z,102564.25
2023-02-06T16:40:52.412Z,102564.75
2023-02-06T16:43:56.350Z,102565.44
2023-02-06T16:46:59.037Z,102568.00
2023-02-06T16:50:01.824Z,102568.06
2023-02-06T16:53:04.680Z,102569.22
2023-02-06T16:56:12.335Z,102575.41
2023-02-06T16:59:14.906Z,102570.19
2023-02-06T17:02:18.113Z,102580.31
2023-02-06T17:05:23.134Z,102568.44
2023-02-06T17:08:26.721Z,102567.78
2023-02-06T17:11:33.320Z,102575.06
2023-02-06T17:14:36.147Z,102584.06
2023-02-06T17:17:38.894Z,102575.28
2023-02-06T17:20:44.142Z,102567.78
2023-02-06T17:23:49.749Z,102574.50
2023-02-06T17:26:52.655Z,102576.59
2023-02-06T17:29:55.386Z,102579.69
2023-02-06T17:32:58.155Z,102580.69
2023-02-06T17:36:01.182Z,102583.28
2023-02-06T17:39:04.052Z,102585.25
2023-02-06T17:42:07.046Z,102574.16
2023-02-06T17:45:10.256Z,102576.63
2023-02-06T17:48:13.191Z,102571.06
2023-02-06T17:51:16.121Z,102570.44
2023-02-06T17:54:18.852Z,102580.88
2023-02-06T17:57:21.712Z,102583.44
2023-02-06T18:00:25.370Z,102594.53
2023-02-06T18:03:28.006Z,102583.44
2023-02-06T18:06:34.663Z,102575.16
2023-02-06T18:09:37.537Z,102580.53
2023-02-06T18:12:40.241Z,102576.59
2023-02-06T18:15:49.818Z,102578.88
2023-02-06T18:18:53.744Z,102578.06
2023-02-06T18:21:56.962Z,102575.75
2023-02-06T18:25:01.049Z,102578.88
2023-02-06T18:28:04.293Z,102579.34
2023-02-06T18:31:19.437Z,102578.22
2023-02-06T18:34:22.176Z,102575.75
2023-02-06T18:37:25.483Z,102576.91
2023-02-06T18:40:28.429Z,102576.25
2023-02-06T18:43:31.710Z,102591.50
2023-02-06T18:46:35.328Z,102587.13
2023-02-06T18:49:39.080Z,102584.50
2023-02-06T18:52:42.186Z,102582.09
2023-02-06T18:55:44.744Z,102582.06
2023-02-06T18:58:48.086Z,102579.78
2023-02-06T19:01:52.006Z,102589.56
2023-02-06T19:04:57.829Z,102582.44
2023-02-06T19:08:01.036Z,102582.13
2023-02-06T19:11:03.666Z,102579.50
2023-02-06T19:14:10.494Z,102592.16
2023-02-06T19:17:13.446Z,102592.63
2023-02-06T19:20:16.294Z,102597.38
2023-02-06T19:23:19.350Z,102594.94
2023-02-06T19:26:22.115Z,102596.66
2023-02-06T19:29:35.170Z,102599.13
2023-02-06T19:32:38.699Z,102591.63
2023-02-06T19:35:41.757Z,102603.34
2023-02-06T19:38:44.740Z,102611.81
2023-02-06T19:41:47.682Z,102609.38
2023-02-06T19:44:57.253Z,102610.19
2023-02-06T19:48:00.044Z,102619.75
2023-02-06T19:51:08.570Z,102610.91
2023-02-06T19:54:11.451Z,102604.88
2023-02-06T19:57:14.937Z,102613.50
2023-02-06T20:00:18.512Z,102612.22
2023-02-06T20:03:21.931Z,102616.47
2023-02-06T20:06:24.938Z,102623.94
2023-02-06T20:09:28.444Z,102614.81
2023-02-06T20:12:31.765Z,102633.19
2023-02-06T20:15:39.097Z,102637.13
2023-02-06T20:18:42.131Z,102633.19
2023-02-06T20:21:49.952Z,102637.06
2023-02-06T20:24:52.945Z,102642.94
2023-02-06T20:27:55.918Z,102639.97
2023-02-06T20:30:59.109Z,102639.63
2023-02-06T20:34:02.237Z,102634.63
2023-02-06T20:37:05.254Z,102648.59
2023-02-06T20:40:08.614Z,102647.19
2023-02-06T20:43:12.723Z,102641.97
2023-02-06T20:46:17.328Z,102631.66
2023-02-06T20:49:28.742Z,102635.56
2023-02-06T20:52:33.440Z,102628.38
2023-02-06T20:55:41.825Z,102631.47
2023-02-06T20:58:44.800Z,102640.25
2023-02-06T21:01:47.956Z,102631.63
2023-02-06T21:04:52.329Z,102633.34
2023-02-06T21:07:57.336Z,102635.28
2023-02-06T21:11:00.437Z,102630.91
2023-02-06T21:14:05.626Z,102634.81
2023-02-06T21:17:09.460Z,102638.38
2023-02-06T21:20:12.394Z,102640.00
2023-02-06T21:23:15.275Z,102646.03
2023-02-06T21:26:18.727Z,102643.44
2023-02-06T21:29:23.026Z,102661.16
2023-02-06T21:32:26.511Z,102652.69
2023-02-06T21:35:30.444Z,102655.47
2023-02-06T21:38:34.888Z,102656.06
2023-02-06T21:41:38.092Z,102664.69
2023-02-06T21:44:40.876Z,102670.69
2023-02-06T21:47:43.412Z,102672.78
2023-02-06T21:50:46.405Z,102680.56
2023-02-06T21:53:48.891Z,102676.94
2023-02-06T21:56:52.595Z,102678.91
2023-02-06T21:59:55.074Z,102669.13
2023-02-06T22:02:57.887Z,102679.69
2023-02-06T22:06:08.598Z,102685.06
2023-02-06T22:09:15.739Z,102682.63
2023-02-06T22:12:18.738Z,102686.19
2023-02-06T22:15:21.817Z,102681.13
2023-02-06T22:18:24.647Z,102684.13
2023-02-06T22:21:29.755Z,102681.06
2023-02-06T22:24:32.174Z,102682.31
2023-02-06T22:27:35.626Z,102681.59
2023-02-06T22:30:40.627Z,102684.28
2023-02-06T22:33:44.102Z,102667.84
2023-02-06T22:36:47.790Z,102672.44
2023-02-06T22:39:50.409Z,102672.97
2023-02-06T22:42:53.157Z,102676.22
2023-02-06T22:45:56.611Z,102670.81
2023-02-06T22:48:59.607Z,102675.66
2023-02-06T22:52:02.531Z,102681.81
2023-02-06T22:55:05.855Z,102671.03
2023-02-06T22:58:08.856Z,102671.47
2023-02-06T23:01:12.695Z,102661.63
2023-02-06T23:04:19.061Z,102669.56
2023-02-06T23:07:21.714Z,102673.78
2023-02-06T23:10:24.621Z,102668.50
2023-02-06T23:13:27.394Z,102665.28
2023-02-06T23:16:31.512Z,102661.19
2023-02-06T23:19:34.281Z,102662.97
2023-02-06T23:22:37.741Z,102671.72
2023-02-06T23:25:44.311Z,102675.13
2023-02-06T23:28:47.548Z,102695.25
2023-02-06T23:31:50.905Z,102704.53
2023-02-06T23:34:54.176Z,102701.25
2023-02-06T23:37:57.008Z,102710.28
2023-02-06T23:41:16.066Z,102705.25
2023-02-06T23:44:18.812Z,102706.50
2023-02-06T23:47:21.869Z,102705.66
2023-02-06T23:50:26.741Z,102687.56
2023-02-06T23:53:29.657Z,102703.06
2023-02-06T23:56:32.563Z,102692.31
2023-02-06T23:59:35.478Z,102695.94
